Time;durP1;ratioP1;P1;durP2;ratioP2;P2;SDS_P1;SDS_P2;PMS_P1;PMS_P2;Temp;Humidity;BMP_temperature;BMP_pressure;BME280_temperature;BME280_humidity;BME280_pressure;Samples;Min_cycle;Max_cycle;Signal;HPM_P1;HPM_P2
2024/01/14 00:00:37;;;;;;;3.72;2.45;;;;;;;;;;4996818;28;20038;-80
2024/01/14 00:03:04;;;;;;;0.65;0.65;;;;;;;;;;4999540;28;20030;-81
2024/01/14 00:05:29;;;;;;;0.65;0.65;;;;;;;;;;4997491;28;20026;-80
2024/01/14 00:07:57;;;;;;;1.67;1.58;;;;;;;;;;5002526;28;20390;-81
2024/01/14 00:10:23;;;;;;;2.58;2.20;;;;;;;;;;5000944;28;20084;-80
2024/01/14 00:12:48;;;;;;;1.67;1.58;;;;;;;;;;4997394;28;20026;-80
2024/01/14 00:15:14;;;;;;;3.38;1.15;;;;;;;;;;5002644;28;21935;-80
2024/01/14 00:17:41;;;;;;;1.25;1.15;;;;;;;;;;5001490;28;20111;-80
2024/01/14 00:20:08;;;;;;;2.97;1.92;;;;;;;;;;4999515;28;20042;-79
2024/01/14 00:22:34;;;;;;;6.53;2.00;;;;;;;;;;5003826;28;20034;-79
2024/01/14 00:24:59;;;;;;;0.80;0.80;;;;;;;;;;5001905;28;20044;-80
2024/01/14 00:27:24;;;;;;;3.10;1.38;;;;;;;;;;5003261;28;20018;-79
2024/01/14 00:29:50;;;;;;;5.05;1.95;;;;;;;;;;5003367;28;20030;-80
2024/01/14 00:32:15;;;;;;;1.67;1.33;;;;;;;;;;4995634;28;20429;-79
2024/01/14 00:34:41;;;;;;;0.50;0.50;;;;;;;;;;4998862;28;20033;-79
2024/01/14 00:37:06;;;;;;;1.88;1.50;;;;;;;;;;5001606;28;20100;-80
2024/01/14 00:39:37;;;;;;;2.60;2.03;;;;;;;;;;5004327;28;20513;-80
2024/01/14 00:42:02;;;;;;;2.40;1.25;;;;;;;;;;5001060;28;20529;-80
2024/01/14 00:44:28;;;;;;;1.20;1.20;;;;;;;;;;5002634;28;20034;-81
2024/01/14 00:46:53;;;;;;;1.10;1.10;;;;;;;;;;5001459;28;20034;-80
2024/01/14 00:49:18;;;;;;;0.80;0.80;;;;;;;;;;5001720;28;20080;-79
2024/01/14 00:51:44;;;;;;;4.72;3.10;;;;;;;;;;5003042;28;20446;-80
2024/01/14 00:54:52;;;;;;;7.88;3.33;;;;;;;;;;5001988;28;20036;-80
2024/01/14 00:57:18;;;;;;;1.40;1.13;;;;;;;;;;4980965;28;20091;-79
2024/01/14 00:59:43;;;;;;;1.23;1.23;;;;;;;;;;4999404;28;20026;-78
2024/01/14 01:02:08;;;;;;;1.30;1.20;;;;;;;;;;5003068;28;20037;-78
2024/01/14 01:04:34;;;;;;;0.40;0.40;;;;;;;;;;5001878;28;20604;-79
2024/01/14 01:07:02;;;;;;;2.47;2.28;;;;;;;;;;5006549;28;20044;-81
2024/01/14 01:09:27;;;;;;;2.53;2.33;;;;;;;;;;5009821;28;20057;-78
2024/01/14 01:11:52;;;;;;;1.73;1.63;;;;;;;;;;5009161;28;20042;-79
2024/01/14 01:14:19;;;;;;;0.82;0.82;;;;;;;;;;5011309;28;20076;-80
2024/01/14 01:16:44;;;;;;;1.00;1.00;;;;;;;;;;5010925;28;20548;-79
2024/01/14 01:19:09;;;;;;;1.52;1.42;;;;;;;;;;5004246;28;20120;-79
2024/01/14 01:21:35;;;;;;;0.60;0.60;;;;;;;;;;5009256;28;20691;-79
2024/01/14 01:24:00;;;;;;;1.30;1.20;;;;;;;;;;5006860;28;20041;-79
2024/01/14 01:26:26;;;;;;;1.08;0.98;;;;;;;;;;5009991;28;20148;-79
2024/01/14 01:28:51;;;;;;;1.15;1.05;;;;;;;;;;5006566;28;20044;-80
2024/01/14 01:31:17;;;;;;;0.68;0.68;;;;;;;;;;5012396;28;20068;-81
2024/01/14 01:33:42;;;;;;;1.52;0.90;;;;;;;;;;5012949;28;20100;-81
2024/01/14 01:36:07;;;;;;;4.53;1.33;;;;;;;;;;5009920;28;20034;-81
2024/01/14 01:38:34;;;;;;;1.15;1.08;;;;;;;;;;5005457;28;20022;-80
2024/01/14 01:40:59;;;;;;;1.63;0.90;;;;;;;;;;5003025;28;20058;-81
2024/01/14 01:43:24;;;;;;;1.67;1.08;;;;;;;;;;5003738;28;20030;-79
2024/01/14 01:45:52;;;;;;;0.65;0.65;;;;;;;;;;5001515;28;20033;-80
2024/01/14 01:48:19;;;;;;;1.13;1.08;;;;;;;;;;4999893;28;20453;-80
2024/01/14 01:50:45;;;;;;;1.45;1.35;;;;;;;;;;4999378;28;20129;-80
2024/01/14 01:53:10;;;;;;;0.57;0.47;;;;;;;;;;5000679;28;20056;-79
2024/01/14 01:55:36;;;;;;;1.50;1.40;;;;;;;;;;5003650;28;20026;-80
2024/01/14 01:58:02;;;;;;;0.57;0.57;;;;;;;;;;4999925;28;20030;-79
2024/01/14 02:00:28;;;;;;;0.40;0.40;;;;;;;;;;5002353;28;20544;-79
2024/01/14 02:02:54;;;;;;;1.13;1.02;;;;;;;;;;5002442;28;21396;-81
2024/01/14 02:05:20;;;;;;;0.70;0.70;;;;;;;;;;4999931;28;20029;-80
2024/01/14 02:07:45;;;;;;;0.50;0.50;;;;;;;;;;5001769;28;20383;-80
2024/01/14 02:10:11;;;;;;;0.45;0.45;;;;;;;;;;5019361;28;20040;-80
2024/01/14 02:12:36;;;;;;;0.30;0.30;;;;;;;;;;4998804;28;20041;-79
2024/01/14 02:15:02;;;;;;;0.68;0.68;;;;;;;;;;4999414;28;20025;-80
2024/01/14 02:17:27;;;;;;;0.30;0.30;;;;;;;;;;5002845;28;20057;-80
2024/01/14 02:19:53;;;;;;;0.80;0.80;;;;;;;;;;4998754;28;20036;-79
2024/01/14 02:22:28;;;;;;;0.77;0.63;;;;;;;;;;4998077;28;20052;-78
2024/01/14 02:24:54;;;;;;;1.40;1.10;;;;;;;;;;5001858;28;20513;-78
2024/01/14 02:27:19;;;;;;;0.45;0.45;;;;;;;;;;5006230;28;20076;-80
2024/01/14 02:29:46;;;;;;;1.02;1.02;;;;;;;;;;4997660;28;20491;-78
2024/01/14 02:32:11;;;;;;;0.45;0.45;;;;;;;;;;5001593;28;20107;-79
2024/01/14 02:34:37;;;;;;;0.40;0.40;;;;;;;;;;4998595;28;20446;-77
2024/01/14 02:37:02;;;;;;;0.30;0.30;;;;;;;;;;5005716;28;20104;-81
2024/01/14 02:39:28;;;;;;;0.65;0.65;;;;;;;;;;5002668;28;20134;-79
2024/01/14 02:41:54;;;;;;;2.28;1.05;;;;;;;;;;5009114;28;20030;-80
2024/01/14 02:44:19;;;;;;;0.32;0.32;;;;;;;;;;5004149;28;20036;-78
2024/01/14 02:46:45;;;;;;;0.20;0.20;;;;;;;;;;5000883;28;20358;-79
2024/01/14 02:49:10;;;;;;;3.45;1.38;;;;;;;;;;5000148;28;20034;-78
2024/01/14 02:51:36;;;;;;;0.85;0.85;;;;;;;;;;5000682;28;20461;-80
2024/01/14 02:54:02;;;;;;;1.92;1.27;;;;;;;;;;5002350;28;20036;-78
2024/01/14 02:56:28;;;;;;;0.73;0.73;;;;;;;;;;4998322;28;20081;-79
2024/01/14 02:58:53;;;;;;;5.18;1.15;;;;;;;;;;4999000;28;20363;-78
2024/01/14 03:01:19;;;;;;;11.77;1.67;;;;;;;;;;5001100;28;20042;-78
2024/01/14 03:03:44;;;;;;;0.35;0.35;;;;;;;;;;4999544;28;23063;-79
2024/01/14 03:06:10;;;;;;;0.65;0.65;;;;;;;;;;5001018;28;20033;-80
2024/01/14 03:08:35;;;;;;;0.30;0.30;;;;;;;;;;4997460;28;20034;-79
2024/01/14 03:11:00;;;;;;;0.43;0.43;;;;;;;;;;4998632;28;20021;-79
2024/01/14 03:13:26;;;;;;;2.63;1.33;;;;;;;;;;5003797;28;20033;-79
2024/01/14 03:15:52;;;;;;;0.63;0.63;;;;;;;;;;5000103;28;20049;-79
2024/01/14 03:18:17;;;;;;;1.27;1.17;;;;;;;;;;5001048;28;20466;-78
2024/01/14 03:20:43;;;;;;;2.85;1.05;;;;;;;;;;4994223;28;20026;-78
2024/01/14 03:23:08;;;;;;;0.40;0.40;;;;;;;;;;5000301;28;20140;-80
2024/01/14 03:25:33;;;;;;;1.45;1.35;;;;;;;;;;5002599;28;20034;-80
2024/01/14 03:27:59;;;;;;;0.20;0.20;;;;;;;;;;5000680;28;20132;-79
2024/01/14 03:30:24;;;;;;;1.35;0.90;;;;;;;;;;4999285;28;20067;-78
2024/01/14 03:32:50;;;;;;;0.60;0.60;;;;;;;;;;5005236;28;20034;-79
2024/01/14 03:35:15;;;;;;;2.15;1.27;;;;;;;;;;5005872;28;20022;-79
2024/01/14 03:37:41;;;;;;;1.75;1.65;;;;;;;;;;5003995;28;20056;-79
2024/01/14 03:40:07;;;;;;;1.00;0.73;;;;;;;;;;4999359;28;20045;-79
2024/01/14 03:42:32;;;;;;;2.92;0.75;;;;;;;;;;4995677;28;20121;-79
2024/01/14 03:44:58;;;;;;;1.13;1.05;;;;;;;;;;5000110;28;21057;-80
2024/01/14 03:47:23;;;;;;;0.40;0.40;;;;;;;;;;5000281;28;20033;-79
2024/01/14 03:49:49;;;;;;;5.35;1.52;;;;;;;;;;5001464;28;22483;-78
2024/01/14 03:52:14;;;;;;;0.47;0.47;;;;;;;;;;5003063;28;20044;-81
2024/01/14 03:54:40;;;;;;;0.20;0.20;;;;;;;;;;5006626;28;20029;-81
2024/01/14 03:57:05;;;;;;;0.70;0.70;;;;;;;;;;5007252;28;20033;-80
2024/01/14 03:59:30;;;;;;;0.82;0.82;;;;;;;;;;5004021;28;20108;-81
2024/01/14 04:01:56;;;;;;;0.35;0.35;;;;;;;;;;5006075;28;20032;-81
2024/01/14 04:04:21;;;;;;;0.88;0.88;;;;;;;;;;5000492;28;20516;-79
2024/01/14 04:06:47;;;;;;;1.10;0.80;;;;;;;;;;5001942;28;20533;-79
2024/01/14 04:09:12;;;;;;;4.05;0.98;;;;;;;;;;5006142;28;20033;-79
2024/01/14 04:11:38;;;;;;;0.22;0.22;;;;;;;;;;5006467;28;20030;-80
2024/01/14 04:14:03;;;;;;;0.50;0.50;;;;;;;;;;5005258;28;20486;-79
2024/01/14 04:16:41;;;;;;;0.35;0.35;;;;;;;;;;5005163;28;21708;-80
2024/01/14 04:19:07;;;;;;;0.30;0.30;;;;;;;;;;5003453;28;20466;-80
2024/01/14 04:21:33;;;;;;;1.30;1.20;;;;;;;;;;5001407;28;20030;-80
2024/01/14 04:23:59;;;;;;;1.38;1.27;;;;;;;;;;5005032;28;20115;-79
2024/01/14 04:26:25;;;;;;;1.33;1.23;;;;;;;;;;5010176;28;20030;-80
2024/01/14 04:28:51;;;;;;;0.98;0.98;;;;;;;;;;5009020;28;20041;-80
2024/01/14 04:31:17;;;;;;;0.20;0.20;;;;;;;;;;5008751;28;20034;-80
2024/01/14 04:33:43;;;;;;;0.30;0.30;;;;;;;;;;5008811;28;20033;-79
2024/01/14 04:36:09;;;;;;;1.30;1.20;;;;;;;;;;5009169;28;20537;-80
2024/01/14 04:38:35;;;;;;;0.63;0.63;;;;;;;;;;5009972;28;20039;-79
2024/01/14 04:41:01;;;;;;;1.75;0.60;;;;;;;;;;5007702;28;20046;-79
2024/01/14 04:43:26;;;;;;;0.90;0.70;;;;;;;;;;5005101;28;20120;-80
2024/01/14 04:45:51;;;;;;;1.70;1.00;;;;;;;;;;5008870;28;20405;-78
2024/01/14 04:48:17;;;;;;;1.13;1.02;;;;;;;;;;5011998;28;20026;-81
2024/01/14 04:50:42;;;;;;;0.73;0.73;;;;;;;;;;5007112;28;20030;-78
2024/01/14 04:53:08;;;;;;;0.73;0.73;;;;;;;;;;5008274;28;20053;-80
2024/01/14 04:55:34;;;;;;;2.63;1.27;;;;;;;;;;5007816;28;20439;-79
2024/01/14 04:57:59;;;;;;;0.40;0.40;;;;;;;;;;5005594;28;20025;-80
2024/01/14 05:00:26;;;;;;;3.08;2.80;;;;;;;;;;5001814;28;20042;-78
2024/01/14 05:02:51;;;;;;;0.38;0.38;;;;;;;;;;5006958;28;20025;-81
2024/01/14 05:05:17;;;;;;;1.13;1.13;;;;;;;;;;5005453;28;20128;-80
2024/01/14 05:07:42;;;;;;;0.82;0.82;;;;;;;;;;5010045;28;20030;-82
2024/01/14 05:10:08;;;;;;;0.47;0.47;;;;;;;;;;5007088;28;20119;-79
2024/01/14 05:12:34;;;;;;;0.35;0.35;;;;;;;;;;5003042;28;20041;-79
2024/01/14 05:14:59;;;;;;;0.30;0.30;;;;;;;;;;5008540;28;20025;-80
2024/01/14 05:17:24;;;;;;;0.20;0.20;;;;;;;;;;5005872;28;20033;-79
2024/01/14 05:19:51;;;;;;;0.73;0.73;;;;;;;;;;5005437;28;20405;-79
2024/01/14 05:22:16;;;;;;;0.30;0.30;;;;;;;;;;5009415;28;20030;-79
2024/01/14 05:24:42;;;;;;;5.65;0.90;;;;;;;;;;5007530;28;20041;-79
2024/01/14 05:27:09;;;;;;;1.15;0.95;;;;;;;;;;5004417;28;21095;-79
2024/01/14 05:29:38;;;;;;;0.30;0.30;;;;;;;;;;5001774;28;20036;-79
2024/01/14 05:32:04;;;;;;;1.58;1.48;;;;;;;;;;5004368;28;20107;-79
2024/01/14 05:34:29;;;;;;;1.15;0.55;;;;;;;;;;5000954;28;20065;-78
2024/01/14 05:36:55;;;;;;;1.50;1.40;;;;;;;;;;4999057;28;20113;-77
2024/01/14 05:39:20;;;;;;;0.85;0.85;;;;;;;;;;5002040;28;20066;-79
2024/01/14 05:41:46;;;;;;;1.13;1.02;;;;;;;;;;4999138;28;20022;-79
2024/01/14 05:44:11;;;;;;;0.30;0.30;;;;;;;;;;5002856;28;20457;-77
2024/01/14 05:46:36;;;;;;;3.50;1.33;;;;;;;;;;5004227;28;20541;-78
2024/01/14 05:49:02;;;;;;;0.80;0.80;;;;;;;;;;4999590;28;20038;-79
2024/01/14 05:51:27;;;;;;;0.40;0.40;;;;;;;;;;5000800;28;20124;-78
2024/01/14 05:53:53;;;;;;;0.40;0.40;;;;;;;;;;5003758;28;20057;-79
2024/01/14 05:56:28;;;;;;;1.75;1.02;;;;;;;;;;5009420;28;20121;-79
2024/01/14 05:58:54;;;;;;;0.55;0.55;;;;;;;;;;5005633;28;20034;-80
2024/01/14 06:01:19;;;;;;;0.80;0.80;;;;;;;;;;5008669;28;20085;-79
2024/01/14 06:03:45;;;;;;;0.40;0.40;;;;;;;;;;5006601;28;20488;-79
2024/01/14 06:06:11;;;;;;;0.98;0.98;;;;;;;;;;5004193;28;20079;-78
2024/01/14 06:08:36;;;;;;;0.55;0.55;;;;;;;;;;5001684;28;20041;-78
2024/01/14 06:11:03;;;;;;;0.38;0.38;;;;;;;;;;5004854;28;20025;-79
2024/01/14 06:13:29;;;;;;;1.13;1.02;;;;;;;;;;5001548;28;20034;-79
2024/01/14 06:15:55;;;;;;;0.68;0.68;;;;;;;;;;5003656;28;20120;-79
2024/01/14 06:18:21;;;;;;;1.75;1.17;;;;;;;;;;5004381;28;20057;-78
2024/01/14 06:20:46;;;;;;;0.98;0.98;;;;;;;;;;5000979;28;20417;-78
2024/01/14 06:23:11;;;;;;;0.75;0.68;;;;;;;;;;5006036;28;20033;-79
2024/01/14 06:25:40;;;;;;;0.35;0.35;;;;;;;;;;5001627;28;20063;-79
2024/01/14 06:28:06;;;;;;;0.57;0.57;;;;;;;;;;5000891;28;20087;-79
2024/01/14 06:30:32;;;;;;;1.40;1.02;;;;;;;;;;5001737;28;20286;-79
2024/01/14 06:32:58;;;;;;;3.13;1.42;;;;;;;;;;5001139;28;20764;-78
2024/01/14 06:35:24;;;;;;;0.50;0.28;;;;;;;;;;5000177;28;20038;-78
2024/01/14 06:37:50;;;;;;;2.97;1.10;;;;;;;;;;4999406;28;20367;-77
2024/01/14 06:40:15;;;;;;;2.97;2.28;;;;;;;;;;5005066;28;20488;-77
2024/01/14 06:42:41;;;;;;;0.88;0.88;;;;;;;;;;5002165;28;20030;-77
2024/01/14 06:45:08;;;;;;;2.58;1.63;;;;;;;;;;5003204;28;20029;-77
2024/01/14 06:47:34;;;;;;;1.45;1.35;;;;;;;;;;5004753;28;20033;-76
2024/01/14 06:49:59;;;;;;;0.60;0.60;;;;;;;;;;5003408;28;20041;-78
2024/01/14 06:52:25;;;;;;;2.83;1.75;;;;;;;;;;5005195;28;20037;-78
2024/01/14 06:54:50;;;;;;;2.53;1.67;;;;;;;;;;5002483;28;20393;-78
2024/01/14 06:57:16;;;;;;;0.82;0.82;;;;;;;;;;5003682;28;20038;-77
2024/01/14 06:59:44;;;;;;;1.67;1.52;;;;;;;;;;5003235;28;20058;-77
2024/01/14 07:02:12;;;;;;;2.23;1.80;;;;;;;;;;5003240;28;20037;-78
2024/01/14 07:04:37;;;;;;;2.00;1.30;;;;;;;;;;5017313;28;20037;-77
2024/01/14 07:07:03;;;;;;;3.33;3.08;;;;;;;;;;5005170;28;20478;-78
2024/01/14 07:09:28;;;;;;;1.00;0.95;;;;;;;;;;4998926;28;20461;-78
2024/01/14 07:11:54;;;;;;;3.90;3.55;;;;;;;;;;4998401;28;20026;-77
2024/01/14 07:14:19;;;;;;;3.10;1.75;;;;;;;;;;5001447;28;20535;-77
2024/01/14 07:16:46;;;;;;;0.82;0.82;;;;;;;;;;4999464;28;20064;-78
2024/01/14 07:19:11;;;;;;;2.45;2.33;;;;;;;;;;5015369;28;20060;-76
2024/01/14 07:21:37;;;;;;;0.82;0.82;;;;;;;;;;5022589;28;20049;-77
2024/01/14 07:24:03;;;;;;;6.30;1.48;;;;;;;;;;5010988;28;20030;-76
2024/01/14 07:26:28;;;;;;;1.65;1.55;;;;;;;;;;5024708;28;20026;-76
2024/01/14 07:28:53;;;;;;;1.30;1.20;;;;;;;;;;5012953;28;20029;-76
2024/01/14 07:31:21;;;;;;;4.47;1.75;;;;;;;;;;5005201;28;20033;-77
2024/01/14 07:33:52;;;;;;;1.25;1.15;;;;;;;;;;5011151;28;20824;-77
2024/01/14 07:36:18;;;;;;;2.95;1.15;;;;;;;;;;5008520;28;20071;-76
2024/01/14 07:38:44;;;;;;;3.85;3.55;;;;;;;;;;5018496;28;20021;-76
2024/01/14 07:41:13;;;;;;;3.10;2.63;;;;;;;;;;5000288;28;20425;-78
2024/01/14 07:43:39;;;;;;;2.50;2.33;;;;;;;;;;5008635;28;20080;-77
2024/01/14 07:46:06;;;;;;;2.13;2.03;;;;;;;;;;5002213;28;20034;-77
2024/01/14 07:48:32;;;;;;;2.90;2.17;;;;;;;;;;5010864;28;20553;-77
2024/01/14 07:51:01;;;;;;;2.88;2.63;;;;;;;;;;5013321;28;20040;-76
2024/01/14 07:53:27;;;;;;;1.20;1.10;;;;;;;;;;5010325;28;20385;-75
2024/01/14 07:55:53;;;;;;;2.30;1.90;;;;;;;;;;4998025;28;20034;-78
2024/01/14 07:58:18;;;;;;;8.63;3.30;;;;;;;;;;4996779;28;20128;-78
2024/01/14 08:00:44;;;;;;;7.05;3.53;;;;;;;;;;4997196;28;20083;-78
2024/01/14 08:03:10;;;;;;;5.93;3.13;;;;;;;;;;4995100;28;20037;-79
2024/01/14 08:05:35;;;;;;;1.83;1.73;;;;;;;;;;4996162;28;20116;-77
2024/01/14 08:08:02;;;;;;;3.83;2.17;;;;;;;;;;4995678;28;20114;-77
2024/01/14 08:10:27;;;;;;;2.53;2.38;;;;;;;;;;4998441;28;20018;-77
2024/01/14 08:12:53;;;;;;;3.88;2.50;;;;;;;;;;4999610;28;20079;-76
2024/01/14 08:15:18;;;;;;;1.77;1.70;;;;;;;;;;4993933;28;20036;-78
2024/01/14 08:17:44;;;;;;;5.97;3.78;;;;;;;;;;4997536;28;20034;-77
2024/01/14 08:20:10;;;;;;;3.85;3.53;;;;;;;;;;4996126;28;20056;-77
2024/01/14 08:22:38;;;;;;;4.07;2.47;;;;;;;;;;4997202;28;20061;-77
2024/01/14 08:25:07;;;;;;;2.90;2.63;;;;;;;;;;4999326;28;20030;-77
2024/01/14 08:27:33;;;;;;;2.33;2.13;;;;;;;;;;5000413;28;20034;-77
2024/01/14 08:29:59;;;;;;;3.55;2.40;;;;;;;;;;4995687;28;20087;-76
2024/01/14 08:32:24;;;;;;;3.42;2.20;;;;;;;;;;5000660;28;20029;-78
2024/01/14 08:34:50;;;;;;;5.88;2.65;;;;;;;;;;4996672;28;20026;-77
2024/01/14 08:37:15;;;;;;;1.27;1.23;;;;;;;;;;4999791;28;20049;-77
2024/01/14 08:39:41;;;;;;;1.52;1.42;;;;;;;;;;5000886;28;20041;-77
2024/01/14 08:42:06;;;;;;;3.92;3.25;;;;;;;;;;4996470;28;20034;-76
2024/01/14 08:44:32;;;;;;;6.25;5.18;;;;;;;;;;5001360;28;20045;-77
2024/01/14 08:46:57;;;;;;;19.38;6.10;;;;;;;;;;4998602;28;20033;-78
2024/01/14 08:49:29;;;;;;;4.72;4.20;;;;;;;;;;5000697;28;20401;-77
2024/01/14 08:51:58;;;;;;;13.55;4.03;;;;;;;;;;4997802;28;20072;-78
2024/01/14 08:54:23;;;;;;;2.53;2.40;;;;;;;;;;5001148;28;20033;-78
2024/01/14 08:56:49;;;;;;;8.13;3.85;;;;;;;;;;5001212;28;20040;-77
2024/01/14 08:59:14;;;;;;;2.05;1.88;;;;;;;;;;5001241;28;20053;-77
2024/01/14 09:01:40;;;;;;;1.50;1.42;;;;;;;;;;4999975;28;20365;-77
2024/01/14 09:04:06;;;;;;;8.77;3.10;;;;;;;;;;4998845;28;20744;-78
2024/01/14 09:06:31;;;;;;;4.13;2.88;;;;;;;;;;4998454;28;20060;-78
2024/01/14 09:08:57;;;;;;;11.50;5.65;;;;;;;;;;5001229;28;20061;-77
2024/01/14 09:11:22;;;;;;;4.30;2.30;;;;;;;;;;5000152;28;20572;-78
2024/01/14 09:13:48;;;;;;;2.55;2.35;;;;;;;;;;5000306;28;20564;-77
2024/01/14 09:16:14;;;;;;;8.00;3.95;;;;;;;;;;5001581;28;20034;-77
2024/01/14 09:18:39;;;;;;;1.27;1.15;;;;;;;;;;5002508;28;20029;-78
2024/01/14 09:21:20;;;;;;;3.60;2.88;;;;;;;;;;5003039;28;20504;-76
2024/01/14 09:23:45;;;;;;;6.00;2.22;;;;;;;;;;5003859;28;20379;-77
2024/01/14 09:26:13;;;;;;;3.47;2.28;;;;;;;;;;5003526;28;20065;-77
2024/01/14 09:28:41;;;;;;;1.75;1.63;;;;;;;;;;5002006;28;20663;-77
2024/01/14 09:31:07;;;;;;;4.53;2.97;;;;;;;;;;5000381;28;20026;-76
2024/01/14 09:33:32;;;;;;;5.43;3.08;;;;;;;;;;5001586;28;20030;-78
2024/01/14 09:36:06;;;;;;;4.35;2.55;;;;;;;;;;5002039;28;20144;-78
2024/01/14 09:38:31;;;;;;;5.68;3.70;;;;;;;;;;5003058;28;20029;-76
2024/01/14 09:41:04;;;;;;;3.58;2.42;;;;;;;;;;5000828;28;20068;-79
2024/01/14 09:43:32;;;;;;;5.32;2.83;;;;;;;;;;5002216;28;20463;-77
2024/01/14 09:45:58;;;;;;;7.70;4.68;;;;;;;;;;5003110;28;20022;-77
2024/01/14 09:48:24;;;;;;;8.68;5.28;;;;;;;;;;5004048;28;20026;-77
2024/01/14 09:50:51;;;;;;;2.40;2.20;;;;;;;;;;5002808;28;20433;-76
2024/01/14 09:53:19;;;;;;;3.75;2.58;;;;;;;;;;5002583;28;22150;-76
2024/01/14 09:55:47;;;;;;;3.53;3.30;;;;;;;;;;5004177;28;20149;-76
2024/01/14 09:58:13;;;;;;;7.43;5.25;;;;;;;;;;5001640;28;20040;-77
2024/01/14 10:00:40;;;;;;;6.68;3.13;;;;;;;;;;5001138;28;20033;-78
2024/01/14 10:03:06;;;;;;;9.10;3.88;;;;;;;;;;5000602;28;20076;-78
2024/01/14 10:05:33;;;;;;;2.58;2.38;;;;;;;;;;5000315;28;20123;-77
2024/01/14 10:07:58;;;;;;;3.53;3.15;;;;;;;;;;4999430;28;20465;-77
2024/01/14 10:10:25;;;;;;;6.03;4.25;;;;;;;;;;5001733;28;20040;-77
2024/01/14 10:12:50;;;;;;;5.47;4.93;;;;;;;;;;4998486;28;20034;-77
2024/01/14 10:15:17;;;;;;;5.75;4.18;;;;;;;;;;5003387;28;20036;-78
2024/01/14 10:17:44;;;;;;;2.92;2.72;;;;;;;;;;4999959;28;20030;-78
2024/01/14 10:20:10;;;;;;;3.05;2.80;;;;;;;;;;5003271;28;20533;-78
2024/01/14 10:22:36;;;;;;;9.35;5.75;;;;;;;;;;5003175;28;20033;-77
2024/01/14 10:25:01;;;;;;;4.57;3.78;;;;;;;;;;5001795;28;20034;-79
2024/01/14 10:27:28;;;;;;;5.43;5.00;;;;;;;;;;5002756;28;20131;-78
2024/01/14 10:29:53;;;;;;;3.55;2.92;;;;;;;;;;5003601;28;20034;-77
2024/01/14 10:32:19;;;;;;;6.82;3.38;;;;;;;;;;4999946;28;20033;-77
2024/01/14 10:34:45;;;;;;;5.03;3.00;;;;;;;;;;5000138;28;20041;-78
2024/01/14 10:37:12;;;;;;;6.72;4.30;;;;;;;;;;5000859;28;20036;-78
2024/01/14 10:39:38;;;;;;;3.45;3.15;;;;;;;;;;4999342;28;20092;-80
2024/01/14 10:42:03;;;;;;;7.47;4.57;;;;;;;;;;5004446;28;20057;-79
2024/01/14 10:44:30;;;;;;;13.30;5.72;;;;;;;;;;5000126;28;20486;-78
2024/01/14 10:46:58;;;;;;;3.75;3.42;;;;;;;;;;5004239;28;20029;-78
2024/01/14 10:49:26;;;;;;;12.85;4.40;;;;;;;;;;5002044;28;20088;-79
2024/01/14 10:52:09;;;;;;;10.70;3.95;;;;;;;;;;5001443;28;20673;-77
2024/01/14 10:54:55;;;;;;;5.50;4.45;;;;;;;;;;5002099;28;20389;-77
2024/01/14 10:57:35;;;;;;;3.15;2.85;;;;;;;;;;5001898;28;20034;-77
2024/01/14 11:00:08;;;;;;;2.35;2.20;;;;;;;;;;4999363;28;20144;-80
2024/01/14 11:02:38;;;;;;;8.85;5.35;;;;;;;;;;5002516;28;20545;-78
2024/01/14 11:05:05;;;;;;;5.03;4.00;;;;;;;;;;4999632;28;20018;-80
2024/01/14 11:07:33;;;;;;;6.63;4.88;;;;;;;;;;5001079;28;20039;-79
2024/01/14 11:09:59;;;;;;;4.53;4.10;;;;;;;;;;5000174;28;20034;-76
2024/01/14 11:12:56;;;;;;;6.32;4.85;;;;;;;;;;5001641;28;22450;-79
2024/01/14 11:15:27;;;;;;;3.50;3.20;;;;;;;;;;4996917;28;20112;-79
2024/01/14 11:17:53;;;;;;;8.13;4.10;;;;;;;;;;4997170;28;20029;-77
2024/01/14 11:20:23;;;;;;;12.77;6.65;;;;;;;;;;5002856;28;20037;-79
2024/01/14 11:22:50;;;;;;;;;;;;;;;;;;5003503;28;20041;-79
2024/01/14 11:25:18;;;;;;;1.75;1.55;;;;;;;;;;5001535;28;19924;-78
2024/01/14 11:27:44;;;;;;;7.05;3.50;;;;;;;;;;5000521;28;20037;-80
2024/01/14 11:30:11;;;;;;;4.57;4.13;;;;;;;;;;5000446;28;20075;-76
2024/01/14 11:32:37;;;;;;;6.53;4.00;;;;;;;;;;5000397;28;20147;-77
2024/01/14 11:35:03;;;;;;;6.38;2.33;;;;;;;;;;5002070;28;20029;-80
2024/01/14 11:37:44;;;;;;;3.35;2.80;;;;;;;;;;4999982;28;20037;-77
2024/01/14 11:40:14;;;;;;;4.80;4.13;;;;;;;;;;5011528;28;20041;-78
2024/01/14 11:42:56;;;;;;;;;;;;;;;;;;5003330;28;20478;-77
2024/01/14 11:45:24;;;;;;;5.45;3.63;;;;;;;;;;5000487;28;19927;-81
2024/01/14 11:47:54;;;;;;;3.10;1.67;;;;;;;;;;4999825;28;20025;-78
2024/01/14 11:50:20;;;;;;;4.53;3.97;;;;;;;;;;4996348;28;20033;-77
2024/01/14 11:52:47;;;;;;;3.97;3.58;;;;;;;;;;5000705;28;20600;-78
2024/01/14 11:55:14;;;;;;;6.38;3.33;;;;;;;;;;5001034;28;20041;-81
2024/01/14 11:57:40;;;;;;;6.88;4.38;;;;;;;;;;5000565;28;20104;-77
2024/01/14 12:00:09;;;;;;;16.70;7.22;;;;;;;;;;4999523;28;20034;-77
2024/01/14 12:02:35;;;;;;;8.60;6.03;;;;;;;;;;5001276;28;20034;-76
2024/01/14 12:05:17;;;;;;;4.85;4.00;;;;;;;;;;5002353;28;20040;-77
2024/01/14 12:07:43;;;;;;;8.65;4.72;;;;;;;;;;5003627;28;20046;-77
2024/01/14 12:10:13;;;;;;;3.25;2.53;;;;;;;;;;5004062;28;20192;-76
2024/01/14 12:12:39;;;;;;;3.85;3.47;;;;;;;;;;4999753;28;20033;-78
2024/01/14 12:15:05;;;;;;;7.40;4.72;;;;;;;;;;5006711;28;20394;-78
2024/01/14 12:18:01;;;;;;;3.85;2.88;;;;;;;;;;5015709;28;20401;-81
2024/01/14 12:20:28;;;;;;;5.95;3.05;;;;;;;;;;5013861;28;20041;-82
2024/01/14 12:23:02;;;;;;;3.13;2.90;;;;;;;;;;5021762;28;20041;-81
2024/01/14 12:25:28;;;;;;;2.78;2.58;;;;;;;;;;5025585;28;20061;-81
2024/01/14 12:27:54;;;;;;;5.10;3.15;;;;;;;;;;5025755;28;20033;-81
2024/01/14 12:30:37;;;;;;;4.90;2.55;;;;;;;;;;5019269;28;20505;-80
2024/01/14 12:33:12;;;;;;;5.10;4.38;;;;;;;;;;5018961;28;20029;-80
2024/01/14 12:35:47;;;;;;;5.50;3.63;;;;;;;;;;5020905;28;20025;-80
2024/01/14 12:38:19;;;;;;;7.07;4.82;;;;;;;;;;5022531;28;20032;-83
2024/01/14 12:40:47;;;;;;;6.88;4.28;;;;;;;;;;5022749;28;20046;-81
2024/01/14 12:43:16;;;;;;;4.03;3.55;;;;;;;;;;5018122;28;20057;-81
2024/01/14 12:45:53;;;;;;;8.68;4.88;;;;;;;;;;5027695;28;20025;-81
2024/01/14 12:48:24;;;;;;;7.93;4.40;;;;;;;;;;5027491;28;20048;-80
2024/01/14 12:51:00;;;;;;;7.55;5.05;;;;;;;;;;5026422;28;20444;-82
2024/01/14 12:53:27;;;;;;;4.95;3.47;;;;;;;;;;5027967;28;20051;-80
2024/01/14 12:56:14;;;;;;;4.18;3.08;;;;;;;;;;5026214;28;20041;-78
2024/01/14 12:58:40;;;;;;;4.03;2.80;;;;;;;;;;5025533;28;20151;-80
2024/01/14 13:01:06;;;;;;;6.45;5.15;;;;;;;;;;5026176;28;20104;-80
2024/01/14 13:03:36;;;;;;;6.88;4.25;;;;;;;;;;5023336;28;20044;-80
2024/01/14 13:06:04;;;;;;;7.95;3.85;;;;;;;;;;5028273;28;20037;-79
2024/01/14 13:08:29;;;;;;;7.07;4.47;;;;;;;;;;5027967;28;20033;-80
2024/01/14 13:10:55;;;;;;;4.10;3.33;;;;;;;;;;5031227;28;20032;-79
2024/01/14 13:13:20;;;;;;;8.98;5.15;;;;;;;;;;5024978;28;20032;-80
2024/01/14 13:15:46;;;;;;;7.57;4.85;;;;;;;;;;5031659;28;20123;-79
2024/01/14 13:18:12;;;;;;;5.07;4.55;;;;;;;;;;5025717;28;20029;-81
2024/01/14 13:20:37;;;;;;;6.22;3.72;;;;;;;;;;5025310;28;20060;-81
2024/01/14 13:23:03;;;;;;;7.85;6.10;;;;;;;;;;5024979;28;20025;-78
2024/01/14 13:25:28;;;;;;;8.43;6.18;;;;;;;;;;5023543;28;20041;-79
2024/01/14 13:27:55;;;;;;;6.88;4.82;;;;;;;;;;5016544;28;20047;-79
2024/01/14 13:30:22;;;;;;;16.92;4.70;;;;;;;;;;5016751;28;20030;-79
2024/01/14 13:32:48;;;;;;;6.57;2.88;;;;;;;;;;5022425;28;20034;-81
2024/01/14 13:35:13;;;;;;;6.82;3.47;;;;;;;;;;5023132;28;20946;-78
2024/01/14 13:37:39;;;;;;;9.20;6.47;;;;;;;;;;5022372;28;20091;-79
2024/01/14 13:40:05;;;;;;;10.90;7.43;;;;;;;;;;5016400;28;20049;-78
2024/01/14 13:42:30;;;;;;;8.05;4.93;;;;;;;;;;5017667;28;20034;-79
2024/01/14 13:44:56;;;;;;;7.75;4.05;;;;;;;;;;5017279;28;21806;-79
2024/01/14 13:47:22;;;;;;;26.85;8.38;;;;;;;;;;5016700;28;20702;-80
2024/01/14 13:49:47;;;;;;;5.93;5.32;;;;;;;;;;5016371;28;20040;-80
2024/01/14 13:52:13;;;;;;;7.22;5.82;;;;;;;;;;5018883;28;20019;-79
2024/01/14 13:54:38;;;;;;;11.45;5.20;;;;;;;;;;5022287;28;20056;-80
2024/01/14 13:57:04;;;;;;;11.00;6.72;;;;;;;;;;5016944;28;20498;-80
2024/01/14 13:59:31;;;;;;;5.28;4.75;;;;;;;;;;5019892;28;20042;-81
2024/01/14 14:01:56;;;;;;;5.60;5.13;;;;;;;;;;5015201;28;20443;-81
2024/01/14 14:04:22;;;;;;;6.70;4.88;;;;;;;;;;5020248;28;20033;-81
2024/01/14 14:06:47;;;;;;;6.50;5.95;;;;;;;;;;5021894;28;20030;-81
2024/01/14 14:09:13;;;;;;;9.20;6.15;;;;;;;;;;5022807;28;20064;-82
2024/01/14 14:11:39;;;;;;;8.40;5.30;;;;;;;;;;5017773;28;20074;-81
2024/01/14 14:14:05;;;;;;;11.65;3.67;;;;;;;;;;5017079;28;20112;-80
2024/01/14 14:16:32;;;;;;;14.52;7.68;;;;;;;;;;5019787;28;20029;-81
2024/01/14 14:18:58;;;;;;;9.23;6.90;;;;;;;;;;5021635;28;20119;-80
2024/01/14 14:21:23;;;;;;;6.18;4.78;;;;;;;;;;5022700;28;20124;-82
2024/01/14 14:23:49;;;;;;;7.93;5.55;;;;;;;;;;5021297;28;20037;-81
2024/01/14 14:26:14;;;;;;;9.38;6.10;;;;;;;;;;5017283;28;20394;-80
2024/01/14 14:28:40;;;;;;;10.00;5.35;;;;;;;;;;5022026;28;20030;-83
2024/01/14 14:31:06;;;;;;;7.82;4.50;;;;;;;;;;5024829;28;20021;-82
2024/01/14 14:33:32;;;;;;;10.00;5.68;;;;;;;;;;5026722;28;20362;-81
2024/01/14 14:35:57;;;;;;;3.80;3.25;;;;;;;;;;5028284;28;20063;-82
2024/01/14 14:38:23;;;;;;;4.55;4.15;;;;;;;;;;5024597;28;20033;-81
2024/01/14 14:40:48;;;;;;;14.10;4.45;;;;;;;;;;5024755;28;20505;-81